Terminal Aerodrome Forecast
Issued by NWS Newport/Morehead City, NC

Home | Current Version | Previous Version | Text Only | Print | Product List | Glossary On
Versions: 1 2 3 4 5 6 7 8 9 10 11 12 13 14 15 16 17 18 19 20 21
000
FTUS42 KMHX 171800 AAA
TAFEWN
TAF AMD
KEWN 171850Z 1719/1818 03010G15KT P6SM SCT250
     FM172000 05010KT P6SM SKC
     FM180900 02010KT P6SM OVC050=

USA.gov is the U.S. government's official web portal to all federal, state and local government web resources and services.